Pacific Solarelle — V7UB8 — position and weather

sailwx.info

Track history (hours):
 
Tides and Currents Weather Stations Pressure Air Temp Water Temp Dewpoint Dewpoint Depression Visibility Wind Speed Wind Dir Waves Ship Positions

Pacific Solarelle

Last reported at 2015-Feb-23 17:09 UTC. Time now 2015-Mar-02 00:58 UTC.
Position N 09°23' W 016°44'.

Length 180 m; draft 8 m.

Type: Tanker. MMSI: 538003925.

Date/timePositionNaut miles runAvg speedWind from/ knotsBaromVisibWave heightAir tempDewpointWater temp
2015-Feb-23 17:09N 09°23' W 016°44'913.7
2015-Feb-23 16:31N 09°18' W 016°38'1313.7
2015-Feb-23 15:32N 09°09' W 016°27'4013.5
2015-Feb-23 12:33N 08°42' W 015°56'4013.3
2015-Feb-23 09:34N 08°16' W 015°26'1513.2
2015-Feb-23 08:25N 08°05' W 015°15'1213.4
2015-Feb-23 07:33N 07°57' W 015°07'1313.4
2015-Feb-23 06:33N 07°48' W 014°57'1413.6
2015-Feb-23 05:33N 07°39' W 014°47'  
Track history (hours):
 
Tides and Currents Weather Stations Pressure Air Temp Water Temp Dewpoint Dewpoint Depression Visibility Wind Speed Wind Dir Waves Ship Positions

Pacific Solarelle

Last reported at 2015-Feb-23 17:09 UTC. Time now 2015-Mar-02 00:58 UTC.
Position N 09°23' W 016°44'.

Length 180 m; draft 8 m.

Type: Tanker. MMSI: 538003925.

Date/timePositionNaut miles runAvg speedWind from/ knotsBaromVisibWave heightAir tempDewpointWater temp
2015-Feb-23 17:09N 09°23' W 016°44'913.7
2015-Feb-23 16:31N 09°18' W 016°38'1313.7
2015-Feb-23 15:32N 09°09' W 016°27'4013.5
2015-Feb-23 12:33N 08°42' W 015°56'4013.3
2015-Feb-23 09:34N 08°16' W 015°26'1513.2
2015-Feb-23 08:25N 08°05' W 015°15'1213.4
2015-Feb-23 07:33N 07°57' W 015°07'1313.4
2015-Feb-23 06:33N 07°48' W 014°57'1413.6
2015-Feb-23 05:33N 07°39' W 014°47'  

Dump ship's entire track history